Time;durP1;ratioP1;P1;durP2;ratioP2;P2;SDS_P1;SDS_P2;PMS_P1;PMS_P2;Temp;Humidity;BMP_temperature;BMP_pressure;BME280_temperature;BME280_humidity;BME280_pressure;Samples;Min_cycle;Max_cycle;Signal;HPM_P1;HPM_P2
2022/02/09 00:02:48;;;;;;;19.48;2.88;;;;;;;8.14;100.00;102473.63;5072873;28;20048;-31
2022/02/09 00:05:39;;;;;;;23.38;3.47;;;;;;;8.13;100.00;102474.72;5072404;28;20036;-31
2022/02/09 00:08:09;;;;;;;21.33;2.50;;;;;;;8.15;100.00;102475.34;5063130;28;20056;-31
2022/02/09 00:10:41;;;;;;;15.95;2.53;;;;;;;8.16;100.00;102474.25;5072397;28;20048;-30
2022/02/09 00:13:29;;;;;;;21.98;3.10;;;;;;;8.14;100.00;102462.53;5062057;28;20060;-29
2022/02/09 00:16:06;;;;;;;16.77;2.35;;;;;;;8.14;100.00;102457.81;5070893;28;20417;-30
2022/02/09 00:18:41;;;;;;;16.73;2.63;;;;;;;8.16;100.00;102455.63;5072963;28;20071;-30
2022/02/09 00:21:30;;;;;;;23.15;3.00;;;;;;;8.15;100.00;102459.50;5073327;28;20055;-31
2022/02/09 00:32:46;;;;;;;24.73;2.78;;;;;;;8.12;100.00;102462.75;5087951;28;20543;-31
2022/02/09 00:35:44;;;;;;;17.58;2.75;;;;;;;8.14;100.00;102456.97;5080554;28;20515;-31
2022/02/09 00:41:19;;;;;;;20.02;2.78;;;;;;;8.07;100.00;102450.66;5083370;28;20052;-31
2022/02/09 01:39:18;;;;;;;21.63;3.20;;;;;;;8.13;100.00;102447.78;5082936;28;20053;-29
2022/02/09 01:55:44;;;;;;;19.48;3.40;;;;;;;8.13;100.00;102416.34;5072945;28;20045;-31
2022/02/09 01:58:12;;;;;;;18.95;2.47;;;;;;;8.17;100.00;102431.44;5073680;28;20032;-31
2022/02/09 02:00:41;;;;;;;15.77;2.95;;;;;;;8.16;100.00;102413.06;5072334;28;20068;-31
2022/02/09 02:03:09;;;;;;;18.05;3.10;;;;;;;8.13;100.00;102422.75;5073634;28;20049;-31
2022/02/09 02:05:37;;;;;;;22.80;2.75;;;;;;;8.14;100.00;102418.03;5073062;28;20060;-30
2022/02/09 02:08:09;;;;;;;23.45;3.60;;;;;;;8.15;100.00;102414.16;5072017;28;20322;-31
2022/02/09 02:10:42;;;;;;;14.80;2.63;;;;;;;8.13;100.00;102419.97;5072318;28;20052;-30
2022/02/09 02:13:27;;;;;;;19.90;3.25;;;;;;;8.14;100.00;102420.81;5072846;28;20056;-31
2022/02/09 02:16:14;;;;;;;21.25;3.00;;;;;;;8.12;100.00;102425.78;5072008;28;20481;-30
2022/02/09 02:18:44;;;;;;;22.73;2.65;;;;;;;8.11;100.00;102412.97;5064709;28;20048;-31
2022/02/09 02:21:24;;;;;;;17.20;2.65;;;;;;;8.10;100.00;102411.25;5071624;28;20812;-33
2022/02/09 02:26:51;;;;;;;17.95;2.70;;;;;;;8.07;100.00;102407.03;5072421;28;20047;-30
2022/02/09 02:38:07;;;;;;;20.27;2.70;;;;;;;8.05;100.00;102398.09;5072270;28;20059;-31
2022/02/09 02:57:29;;;;;;;14.00;2.50;;;;;;;8.04;100.00;102387.22;5071320;28;20044;-30
2022/02/09 03:14:08;;;;;;;16.27;2.60;;;;;;;8.01;100.00;102369.09;5048565;28;20420;-32
2022/02/09 03:16:40;;;;;;;19.98;3.00;;;;;;;7.97;100.00;102364.28;5066439;28;20098;-32
2022/02/09 03:19:37;;;;;;;21.92;2.83;;;;;;;7.96;100.00;102363.44;5070879;28;20054;-29
2022/02/09 03:22:18;;;;;;;17.75;2.90;;;;;;;7.95;100.00;102359.81;5069102;28;20518;-30
2022/02/09 03:25:17;;;;;;;19.63;2.88;;;;;;;7.95;100.00;102359.81;5070043;28;20405;-29
2022/02/09 03:44:35;;;;;;;22.15;2.90;;;;;;;7.87;100.00;102339.88;5071012;28;20052;-29
2022/02/09 03:47:21;;;;;;;24.30;3.20;;;;;;;7.84;100.00;102341.22;5069295;28;20135;-28
2022/02/09 03:50:22;;;;;;;24.10;3.63;;;;;;;7.84;100.00;102330.09;5070985;28;20044;-28
2022/02/09 03:56:00;;;;;;;27.77;3.53;;;;;;;7.80;100.00;102336.38;5031236;28;20094;-28
2022/02/09 03:58:28;;;;;;;23.95;3.70;;;;;;;7.78;100.00;102339.44;5070283;28;20052;-29
2022/02/09 04:00:56;;;;;;;20.98;2.58;;;;;;;7.77;100.00;102334.97;5070156;28;20070;-29
2022/02/09 04:03:25;;;;;;;23.38;3.30;;;;;;;7.77;100.00;102337.75;5070619;28;20041;-30
2022/02/09 04:05:53;;;;;;;19.80;2.85;;;;;;;7.75;100.00;102341.84;5071063;28;20401;-30
2022/02/09 04:08:27;;;;;;;25.55;2.92;;;;;;;7.73;100.00;102332.91;5069144;28;20051;-31
2022/02/09 04:11:04;;;;;;;30.52;4.43;;;;;;;7.73;100.00;102333.75;5070234;28;20408;-30
2022/02/09 04:13:41;;;;;;;23.60;2.85;;;;;;;7.74;100.00;102337.38;5069315;28;20037;-30
2022/02/09 04:16:17;;;;;;;20.80;3.00;;;;;;;7.75;100.00;102333.50;5059967;28;20092;-32
2022/02/09 04:18:58;;;;;;;19.58;2.72;;;;;;;7.75;100.00;102339.91;5069634;28;20042;-29
2022/02/09 04:38:16;;;;;;;20.08;2.83;;;;;;;7.73;100.00;102327.34;5070308;28;20059;-32
2022/02/09 04:43:54;;;;;;;24.30;3.60;;;;;;;7.75;100.00;102326.03;5040136;28;20541;-29
2022/02/09 04:49:34;;;;;;;25.45;2.63;;;;;;;7.79;100.00;102320.81;5069707;28;20044;-31
2022/02/09 04:52:16;;;;;;;15.55;2.22;;;;;;;7.79;100.00;102326.38;5068294;28;20092;-30
2022/02/09 04:54:49;;;;;;;22.50;3.08;;;;;;;7.79;100.00;102323.59;5070009;28;20074;-31
2022/02/09 04:57:29;;;;;;;18.13;2.70;;;;;;;7.78;100.00;102325.53;5069727;28;20040;-29
2022/02/09 05:00:12;;;;;;;20.23;2.78;;;;;;;7.79;100.00;102332.78;5069663;28;20102;-30
2022/02/09 05:03:24;;;;;;;;;;;;;;;7.74;100.00;102318.78;5070233;28;20048;-30
2022/02/09 05:20:31;;;;;;;21.83;2.90;;;;;;;7.78;100.00;102308.88;5073914;28;20056;-31
2022/02/09 05:25:48;;;;;;;20.10;2.70;;;;;;;7.79;100.00;102298.59;5062329;28;20063;-31
2022/02/09 05:28:18;;;;;;;21.48;2.92;;;;;;;7.79;100.00;102293.03;5071227;28;20055;-29
2022/02/09 05:30:48;;;;;;;19.50;3.22;;;;;;;7.78;100.00;102303.31;5072808;28;20045;-29
2022/02/09 05:33:16;;;;;;;24.23;2.85;;;;;;;7.77;100.00;102284.94;5073783;28;20071;-29
2022/02/09 05:35:47;;;;;;;28.03;3.43;;;;;;;7.78;100.00;102300.53;5073461;28;20067;-31
2022/02/09 05:38:17;;;;;;;22.95;2.95;;;;;;;7.80;100.00;102294.69;5073069;28;20048;-29
2022/02/09 05:40:46;;;;;;;25.30;3.63;;;;;;;7.80;100.00;102300.25;5073312;28;20052;-30
2022/02/09 05:43:16;;;;;;;22.90;3.47;;;;;;;7.76;100.00;102296.31;5073109;28;20560;-30
2022/02/09 05:46:04;;;;;;;22.40;3.15;;;;;;;7.77;100.00;102295.22;5072649;28;20037;-29
2022/02/09 05:51:19;;;;;;;18.70;3.13;;;;;;;7.74;100.00;102310.44;5071515;28;20052;-30
2022/02/09 05:54:01;;;;;;;25.42;3.15;;;;;;;7.74;100.00;102296.53;5072543;28;20055;-31
2022/02/09 05:56:37;;;;;;;26.05;3.03;;;;;;;7.75;100.00;102291.84;5073188;28;20056;-29
2022/02/09 05:59:16;;;;;;;30.70;3.10;;;;;;;7.74;100.00;102299.31;5071850;28;20054;-30
2022/02/09 06:01:45;;;;;;;25.33;2.72;;;;;;;7.73;100.00;102302.34;5072931;28;20489;-29
2022/02/09 06:04:14;;;;;;;22.42;3.20;;;;;;;7.73;100.00;102302.34;5072442;28;20444;-29
2022/02/09 06:06:43;;;;;;;21.17;3.03;;;;;;;7.73;100.00;102296.78;5070982;28;20049;-28
2022/02/09 06:09:11;;;;;;;24.92;3.47;;;;;;;7.74;100.00;102296.53;5072995;28;20119;-30
2022/02/09 06:11:45;;;;;;;20.92;2.97;;;;;;;7.75;100.00;102301.00;5072963;28;20048;-29
2022/02/09 06:14:38;;;;;;;23.30;3.17;;;;;;;7.69;100.00;102304.75;5071949;28;20049;-29
2022/02/09 06:19:53;;;;;;;23.13;3.25;;;;;;;7.65;100.00;102303.56;5069273;28;20048;-29
2022/02/09 06:22:23;;;;;;;24.77;3.15;;;;;;;7.67;100.00;102300.53;5071530;28;20080;-30
2022/02/09 06:24:52;;;;;;;24.50;3.13;;;;;;;7.65;100.00;102303.56;5070033;28;20135;-30
2022/02/09 06:27:21;;;;;;;17.08;2.80;;;;;;;7.67;100.00;102312.50;5069753;28;20097;-30
2022/02/09 06:29:49;;;;;;;26.75;3.35;;;;;;;7.68;100.00;102302.22;5071920;28;20484;-30
2022/02/09 06:32:19;;;;;;;23.73;3.50;;;;;;;7.68;100.00;102311.41;5072239;28;20037;-32
2022/02/09 06:34:48;;;;;;;20.90;3.10;;;;;;;7.67;100.00;102304.16;5071557;28;20044;-30
2022/02/09 06:37:20;;;;;;;21.55;2.83;;;;;;;7.67;100.00;102295.81;5072587;28;20049;-31
2022/02/09 06:39:49;;;;;;;22.95;3.03;;;;;;;7.67;100.00;102295.81;5070707;28;20059;-31
2022/02/09 06:42:22;;;;;;;20.05;2.90;;;;;;;7.66;100.00;102299.69;5070492;28;20045;-31
2022/02/09 06:44:54;;;;;;;20.73;2.60;;;;;;;7.68;100.00;102296.66;5071169;28;20040;-31
2022/02/09 06:47:25;;;;;;;27.15;3.50;;;;;;;7.70;100.00;102287.00;5071196;28;20063;-30
2022/02/09 06:49:58;;;;;;;23.15;3.17;;;;;;;7.75;100.00;102273.22;5070497;28;20051;-31
2022/02/09 06:52:27;;;;;;;26.73;3.42;;;;;;;7.74;100.00;102279.88;5070987;28;20495;-30
2022/02/09 06:55:09;;;;;;;19.58;2.60;;;;;;;7.73;100.00;102283.75;5071036;28;20041;-32
2022/02/09 06:57:59;;;;;;;24.02;3.33;;;;;;;7.75;100.00;102272.38;5070677;28;20055;-33
2022/02/09 07:00:29;;;;;;;25.38;4.03;;;;;;;7.75;100.00;102272.38;5070826;28;20046;-30
2022/02/09 07:02:57;;;;;;;20.85;2.97;;;;;;;7.77;100.00;102271.06;5069567;28;20037;-30
2022/02/09 07:05:25;;;;;;;21.48;3.80;;;;;;;7.77;100.00;102287.72;5069940;28;20123;-30
2022/02/09 07:07:53;;;;;;;23.00;2.88;;;;;;;7.74;100.00;102260.44;5070122;28;20640;-32
2022/02/09 07:10:21;;;;;;;23.95;3.28;;;;;;;7.77;100.00;102270.22;5068992;28;20049;-30
2022/02/09 07:12:48;;;;;;;27.33;3.08;;;;;;;7.79;100.00;102273.59;5070156;28;20052;-33
2022/02/09 07:15:25;;;;;;;18.00;2.85;;;;;;;7.80;100.00;102281.66;5069465;28;20048;-31
2022/02/09 07:17:56;;;;;;;19.77;2.80;;;;;;;7.79;100.00;102282.78;5068658;28;20044;-30
2022/02/09 07:20:27;;;;;;;23.83;3.17;;;;;;;7.81;100.00;102269.44;5069427;28;20482;-29
2022/02/09 07:22:58;;;;;;;20.33;3.10;;;;;;;7.82;100.00;102287.81;5069455;28;20055;-29
2022/02/09 07:25:31;;;;;;;27.52;3.28;;;;;;;7.83;100.00;102281.16;5069284;28;20054;-31
2022/02/09 07:28:03;;;;;;;22.42;2.95;;;;;;;7.85;100.00;102284.53;5070200;28;20366;-30
2022/02/09 07:30:31;;;;;;;30.33;4.03;;;;;;;7.83;100.00;102281.16;5069390;28;20051;-32
2022/02/09 07:33:02;;;;;;;27.75;3.65;;;;;;;7.83;100.00;102283.94;5069130;28;20287;-29
2022/02/09 07:35:31;;;;;;;31.27;3.95;;;;;;;7.80;100.00;102292.75;5070140;28;20066;-31
2022/02/09 07:37:59;;;;;;;25.52;3.83;;;;;;;7.82;100.00;102295.31;5068612;28;20467;-30
2022/02/09 07:40:26;;;;;;;30.75;3.42;;;;;;;7.82;100.00;102293.38;5070744;28;20048;-30
2022/02/09 07:42:58;;;;;;;27.63;3.40;;;;;;;7.82;100.00;102296.16;5071173;28;20067;-30
2022/02/09 07:45:59;;;;;;;31.20;3.60;;;;;;;7.80;100.00;102297.47;5068602;28;20039;-29
2022/02/09 07:48:41;;;;;;;23.92;3.35;;;;;;;7.79;100.00;102307.78;5061646;28;20384;-30
2022/02/09 07:53:58;;;;;;;17.57;2.83;;;;;;;7.79;100.00;102302.22;5070365;28;20044;-30
2022/02/09 07:56:27;;;;;;;19.65;3.08;;;;;;;7.77;100.00;102298.84;5071033;28;20041;-30
2022/02/09 07:58:55;;;;;;;24.73;3.10;;;;;;;7.79;100.00;102305.00;5070043;28;20055;-30
2022/02/09 08:01:23;;;;;;;23.15;2.70;;;;;;;7.81;100.00;102301.94;5070683;28;20063;-31
2022/02/09 08:03:54;;;;;;;20.90;2.78;;;;;;;7.84;100.00;102307.03;5070772;28;20052;-30
2022/02/09 08:06:24;;;;;;;28.98;3.65;;;;;;;7.87;100.00;102300.97;5069639;28;20098;-31
2022/02/09 08:08:54;;;;;;;26.17;3.30;;;;;;;7.90;100.00;102298.56;5070639;28;20048;-29
2022/02/09 08:11:27;;;;;;;20.77;3.50;;;;;;;7.90;100.00;102303.25;5070342;28;20102;-29
2022/02/09 08:31:45;;;;;;;22.15;2.88;;;;;;;7.97;100.00;102300.34;5062175;28;20151;-29
2022/02/09 08:34:13;;;;;;;18.25;2.95;;;;;;;7.99;100.00;102300.97;5069820;28;20041;-29
2022/02/09 08:36:43;;;;;;;22.10;3.03;;;;;;;8.00;100.00;102308.16;5070389;28;20619;-29
2022/02/09 08:39:11;;;;;;;20.42;3.45;;;;;;;8.00;100.00;102303.47;5070309;28;20131;-31
2022/02/09 08:41:39;;;;;;;18.65;3.53;;;;;;;7.99;100.00;102292.63;5069462;28;20083;-31
2022/02/09 08:44:07;;;;;;;24.58;3.05;;;;;;;8.02;100.00;102306.00;5069846;28;20041;-30
2022/02/09 08:46:35;;;;;;;19.05;3.40;;;;;;;8.01;100.00;102288.47;5070468;28;20136;-33
2022/02/09 08:49:03;;;;;;;26.85;3.47;;;;;;;8.04;100.00;102287.13;5069661;28;20040;-30
2022/02/09 08:51:30;;;;;;;20.08;3.78;;;;;;;8.05;100.00;102288.81;5074263;28;20056;-31
2022/02/09 08:54:00;;;;;;;23.63;3.30;;;;;;;8.09;100.00;102282.53;5074286;28;20059;-29
2022/02/09 08:56:29;;;;;;;22.73;3.15;;;;;;;8.07;100.00;102289.44;5073087;28;20060;-31
2022/02/09 08:58:58;;;;;;;19.63;3.28;;;;;;;8.12;100.00;102295.09;5074163;28;20123;-30
2022/02/09 09:01:34;;;;;;;23.65;3.72;;;;;;;8.14;100.00;102296.53;5074082;28;20111;-29
2022/02/09 09:04:08;;;;;;;23.42;3.65;;;;;;;8.17;100.00;102297.97;5073255;28;20477;-29
2022/02/09 09:06:40;;;;;;;20.67;3.00;;;;;;;8.23;100.00;102300.59;5073948;28;20481;-29
2022/02/09 09:09:23;;;;;;;20.58;2.95;;;;;;;8.29;100.00;102298.75;5072900;28;20461;-31
2022/02/09 09:15:06;;;;;;;20.42;3.20;;;;;;;8.30;100.00;102309.66;5073914;28;20052;-29
2022/02/09 09:18:28;;;;;;;21.98;2.95;;;;;;;8.33;100.00;102302.78;5064787;28;20049;-30
2022/02/09 09:41:01;;;;;;;17.48;2.65;;;;;;;8.37;100.00;102308.69;5064404;28;20049;-29
2022/02/09 10:02:46;;;;;;;17.00;2.92;;;;;;;8.44;100.00;102328.84;5073270;28;20049;-35
2022/02/09 10:30:53;;;;;;;24.27;3.58;;;;;;;8.35;100.00;102341.47;5072206;28;20040;-30
2022/02/09 10:34:11;;;;;;;20.67;3.15;;;;;;;8.62;100.00;102348.94;5000415;28;20061;-30
2022/02/09 10:36:47;;;;;;;19.05;2.78;;;;;;;8.60;100.00;102356.69;4996644;28;20461;-32
2022/02/09 10:39:19;;;;;;;21.33;2.67;;;;;;;8.63;100.00;102355.34;5035438;28;20056;-29
2022/02/09 10:41:52;;;;;;;17.05;2.63;;;;;;;8.68;100.00;102361.00;5071452;28;20036;-30
2022/02/09 10:44:23;;;;;;;17.65;2.83;;;;;;;8.69;100.00;102350.72;5072883;28;20049;-30
2022/02/09 10:46:53;;;;;;;16.83;2.42;;;;;;;8.72;100.00;102358.59;5072002;28;20048;-29
2022/02/09 10:49:28;;;;;;;17.83;2.70;;;;;;;8.77;100.00;102353.13;5071958;28;20189;-29
2022/02/09 10:52:07;;;;;;;17.58;2.75;;;;;;;8.77;100.00;102355.91;5067481;28;20036;-29
2022/02/09 10:54:35;;;;;;;22.02;2.47;;;;;;;8.83;100.00;102352.94;5061530;28;20055;-29
2022/02/09 10:57:07;;;;;;;12.00;2.10;;;;;;;8.87;100.00;102347.72;5071939;28;20062;-29
2022/02/09 10:59:37;;;;;;;14.95;2.58;;;;;;;8.94;100.00;102351.19;5061498;28;20052;-29
2022/02/09 11:02:06;;;;;;;15.23;2.40;;;;;;;8.99;100.00;102354.88;5070928;28;20147;-30
2022/02/09 11:04:36;;;;;;;14.85;2.30;;;;;;;9.03;100.00;102360.81;5072103;28;20052;-29
2022/02/09 11:07:05;;;;;;;18.05;2.97;;;;;;;9.03;100.00;102355.22;5071595;28;20063;-31
2022/02/09 11:09:33;;;;;;;21.48;3.67;;;;;;;9.06;100.00;102353.88;5071205;28;20072;-29
2022/02/09 11:12:01;;;;;;;12.93;2.17;;;;;;;9.06;100.00;102357.50;5070566;28;20057;-28
2022/02/09 11:14:29;;;;;;;16.65;2.55;;;;;;;9.04;100.00;102348.56;5071639;28;20393;-30
2022/02/09 11:16:58;;;;;;;17.00;2.28;;;;;;;9.05;100.00;102357.75;5070977;28;20127;-28
2022/02/09 11:19:32;;;;;;;17.48;2.63;;;;;;;9.00;100.00;102364.09;5071531;28;20044;-30
2022/02/09 11:22:10;;;;;;;13.90;2.97;;;;;;;9.03;100.00;102355.22;5071650;28;20052;-28
2022/02/09 11:24:44;;;;;;;14.02;2.15;;;;;;;9.09;100.00;102365.38;5069309;28;20059;-29
2022/02/09 11:27:24;;;;;;;16.98;2.65;;;;;;;9.10;100.00;102360.66;5071060;28;20493;-29
2022/02/09 11:30:07;;;;;;;13.60;2.40;;;;;;;9.10;100.00;102372.63;5070635;28;20489;-29
2022/02/09 11:33:00;;;;;;;16.83;2.17;;;;;;;9.09;100.00;102373.72;5071120;28;20051;-30
2022/02/09 11:35:39;;;;;;;15.80;2.13;;;;;;;9.10;100.00;102366.22;5068786;28;20496;-29
2022/02/09 11:38:26;;;;;;;13.65;2.00;;;;;;;9.00;100.00;102366.88;5070648;28;20040;-29
2022/02/09 11:41:04;;;;;;;15.65;2.40;;;;;;;8.97;100.00;102381.31;5070349;28;20049;-31
2022/02/09 11:43:51;;;;;;;18.48;2.78;;;;;;;8.95;100.00;102364.03;5070330;28;20033;-32
2022/02/09 11:46:41;;;;;;;16.88;2.13;;;;;;;8.99;100.00;102362.44;5061582;28;20044;-31
2022/02/09 11:52:14;;;;;;;16.25;2.33;;;;;;;9.06;100.00;102360.31;5037044;28;20517;-29
2022/02/09 11:55:05;;;;;;;17.60;2.35;;;;;;;9.02;100.00;102364.69;5060849;28;20059;-30
2022/02/09 12:00:56;;;;;;;12.93;2.42;;;;;;;8.90;100.00;102355.56;5045109;28;20521;-29
2022/02/09 12:10:26;;;;;;;17.85;2.63;;;;;;;8.91;100.00;102346.13;5070762;28;20044;-31
2022/02/09 12:13:04;;;;;;;15.60;2.08;;;;;;;8.86;100.00;102344.09;5070037;28;20106;-30
2022/02/09 12:18:53;;;;;;;14.95;2.05;;;;;;;8.79;100.00;102348.16;5062480;28;20049;-31
2022/02/09 12:21:37;;;;;;;17.95;1.95;;;;;;;8.78;100.00;102343.69;5070579;28;20048;-30
2022/02/09 12:24:20;;;;;;;17.10;2.40;;;;;;;8.79;100.00;102340.63;5070495;28;20488;-30
2022/02/09 12:27:02;;;;;;;17.38;2.17;;;;;;;8.76;100.00;102334.72;5069303;28;20128;-30
2022/02/09 12:29:34;;;;;;;23.15;2.85;;;;;;;8.75;100.00;102345.00;5070844;28;20049;-30
2022/02/09 12:32:22;;;;;;;13.48;2.40;;;;;;;8.74;100.00;102345.25;5070636;28;20059;-30
2022/02/09 12:34:55;;;;;;;17.98;2.78;;;;;;;8.71;100.00;102349.38;5069651;28;20048;-31
2022/02/09 12:37:23;;;;;;;;;;;;;;;8.66;100.00;102340.09;5069840;28;20110;-30
2022/02/09 12:39:52;;;;;;;13.25;2.22;;;;;;;8.62;100.00;102348.94;5069765;28;19924;-30
2022/02/09 12:42:22;;;;;;;15.35;1.95;;;;;;;8.64;100.00;102346.75;5070459;28;20413;-29
2022/02/09 12:45:05;;;;;;;15.93;1.77;;;;;;;8.68;100.00;102349.88;5070679;28;20087;-29
2022/02/09 12:47:36;;;;;;;14.43;2.15;;;;;;;8.68;100.00;102344.31;5069383;28;20400;-30
2022/02/09 12:50:07;;;;;;;16.42;2.35;;;;;;;8.70;100.00;102341.28;5070544;28;20092;-30
2022/02/09 12:52:36;;;;;;;14.95;1.95;;;;;;;8.72;100.00;102339.09;5070573;28;20049;-31
2022/02/09 12:55:07;;;;;;;20.52;2.20;;;;;;;8.73;100.00;102335.22;5069705;28;20040;-31
2022/02/09 12:57:39;;;;;;;17.90;2.20;;;;;;;8.75;100.00;102341.38;5070406;28;20059;-30
2022/02/09 13:00:21;;;;;;;18.17;2.07;;;;;;;8.76;100.00;102343.91;5070520;28;20064;-33
2022/02/09 13:02:48;;;;;;;15.30;2.28;;;;;;;8.76;100.00;102354.22;5069716;28;20291;-29
2022/02/09 13:05:16;;;;;;;14.55;1.92;;;;;;;8.75;100.00;102353.38;5070684;28;20082;-29
2022/02/09 13:07:55;;;;;;;15.30;2.65;;;;;;;8.77;100.00;102347.56;5070375;28;20417;-29
2022/02/09 13:10:27;;;;;;;14.27;2.38;;;;;;;8.77;100.00;102353.97;5062613;28;20049;-31
2022/02/09 13:13:02;;;;;;;15.60;2.03;;;;;;;8.78;100.00;102355.66;5070222;28;20087;-30
2022/02/09 13:15:35;;;;;;;19.77;3.17;;;;;;;8.79;100.00;102348.16;5061254;28;20390;-31
2022/02/09 13:18:29;;;;;;;16.60;2.58;;;;;;;8.79;100.00;102348.16;5070207;28;20053;-30
2022/02/09 13:21:51;;;;;;;14.77;2.75;;;;;;;8.79;100.00;102350.94;5063370;28;20049;-31
2022/02/09 13:24:21;;;;;;;12.65;1.90;;;;;;;8.76;100.00;102359.78;5066469;28;20055;-33
2022/02/09 14:13:15;;;;;;;13.55;1.70;;;;;;;8.92;100.00;102354.22;5086239;28;20048;-32
2022/02/09 14:18:46;;;;;;;15.50;2.10;;;;;;;8.91;100.00;102349.75;5063152;28;20071;-30
2022/02/09 14:31:42;;;;;;;12.77;1.95;;;;;;;8.92;100.00;102353.38;5086683;28;20508;-32
2022/02/09 14:35:43;;;;;;;14.75;2.03;;;;;;;8.89;100.00;102356.66;5068998;28;20055;-30
2022/02/09 14:52:36;;;;;;;16.20;2.80;;;;;;;8.87;100.00;102358.84;5077526;28;20497;-29
2022/02/09 14:55:19;;;;;;;17.77;2.28;;;;;;;8.85;100.00;102361.88;5082318;28;20048;-30
2022/02/09 14:58:01;;;;;;;13.77;1.75;;;;;;;8.86;100.00;102371.06;5077111;28;20070;-32
2022/02/09 15:00:32;;;;;;;15.70;2.03;;;;;;;8.87;100.00;102373.63;5082940;28;20048;-31
2022/02/09 15:03:06;;;;;;;12.05;1.85;;;;;;;8.87;100.00;102378.34;5085901;28;20044;-30
2022/02/09 15:08:19;;;;;;;17.52;3.03;;;;;;;8.86;100.00;102383.06;5085194;28;20491;-31
2022/02/09 15:10:52;;;;;;;16.02;2.30;;;;;;;8.84;100.00;102381.63;5086211;28;20086;-29
2022/02/09 15:13:32;;;;;;;17.23;2.25;;;;;;;8.81;100.00;102382.97;5086092;28;20505;-30
2022/02/09 15:16:09;;;;;;;17.65;2.38;;;;;;;8.77;100.00;102387.38;5085255;28;20154;-31
2022/02/09 15:19:04;;;;;;;15.55;2.42;;;;;;;8.74;100.00;102390.63;5086322;28;20056;-30
2022/02/09 15:24:20;;;;;;;11.45;1.90;;;;;;;8.68;100.00;102382.44;5071872;28;20049;-30
2022/02/09 15:26:50;;;;;;;15.38;2.00;;;;;;;8.70;100.00;102381.09;5071294;28;20040;-31
2022/02/09 15:29:18;;;;;;;11.85;2.05;;;;;;;8.70;100.00;102383.88;5071528;28;20135;-30
2022/02/09 15:31:53;;;;;;;16.10;2.40;;;;;;;8.75;100.00;102383.13;5072263;28;20045;-30
2022/02/09 15:34:26;;;;;;;10.27;1.63;;;;;;;8.73;100.00;102393.66;5072301;28;20044;-32
2022/02/09 15:37:11;;;;;;;14.05;1.95;;;;;;;8.72;100.00;102390.03;5061233;28;20075;-31
2022/02/09 15:39:40;;;;;;;18.58;2.15;;;;;;;8.70;100.00;102388.59;5072119;28;20040;-29
2022/02/09 15:42:25;;;;;;;17.45;2.13;;;;;;;8.70;100.00;102385.81;5072231;28;20053;-29
2022/02/09 16:09:39;;;;;;;13.57;2.13;;;;;;;8.54;100.00;102398.59;5047932;28;20059;-31
2022/02/09 16:23:11;;;;;;;13.60;2.20;;;;;;;8.49;100.00;102385.41;5069607;28;20052;-31
2022/02/09 16:25:56;;;;;;;11.32;1.70;;;;;;;8.47;100.00;102382.03;5070644;28;20088;-30
2022/02/09 16:34:26;;;;;;;14.30;1.80;;;;;;;8.45;100.00;102387.00;5070280;28;20404;-32
2022/02/09 16:37:26;;;;;;;14.48;2.20;;;;;;;8.44;100.00;102385.31;5070492;28;20119;-31
2022/02/09 16:45:59;;;;;;;18.98;2.30;;;;;;;8.41;100.00;102383.03;5067391;28;20074;-32
2022/02/09 16:48:29;;;;;;;16.90;2.65;;;;;;;8.36;100.00;102393.22;5069929;28;20497;-31
2022/02/09 16:51:00;;;;;;;17.13;2.05;;;;;;;8.31;100.00;102391.13;5069940;28;20082;-31
2022/02/09 16:56:45;;;;;;;13.57;1.90;;;;;;;8.21;100.00;102386.19;5067428;28;20527;-32
2022/02/09 17:18:49;;;;;;;18.35;2.67;;;;;;;8.00;100.00;102375.72;5061856;28;20041;-32
2022/02/09 17:21:19;;;;;;;14.60;1.80;;;;;;;7.97;100.00;102361.50;5069524;28;20102;-32
2022/02/09 17:23:47;;;;;;;15.93;2.15;;;;;;;7.98;100.00;102365.97;5070065;28;20086;-31
2022/02/09 17:26:17;;;;;;;12.98;1.75;;;;;;;7.98;100.00;102363.19;5070257;28;20049;-31
2022/02/09 17:28:53;;;;;;;13.70;2.17;;;;;;;7.98;100.00;102363.19;5068814;28;20524;-30
2022/02/09 17:31:27;;;;;;;11.88;2.20;;;;;;;7.98;100.00;102364.03;5069371;28;20135;-32
2022/02/09 17:34:13;;;;;;;18.48;2.45;;;;;;;8.01;100.00;102362.69;5069894;28;20063;-32
2022/02/09 17:36:58;;;;;;;14.65;2.33;;;;;;;8.00;100.00;102370.16;5069189;28;20049;-30
2022/02/09 17:53:24;;;;;;;11.60;1.80;;;;;;;7.92;100.00;102360.28;5068123;28;20063;-30
2022/02/09 17:55:57;;;;;;;8.88;1.30;;;;;;;7.93;100.00;102350.03;5068977;28;20056;-30
2022/02/09 17:58:31;;;;;;;10.07;1.98;;;;;;;7.94;100.00;102358.13;5069400;28;20409;-30
2022/02/09 18:01:01;;;;;;;13.20;1.80;;;;;;;7.93;100.00;102370.31;5067324;28;20524;-31
2022/02/09 18:03:29;;;;;;;15.27;2.08;;;;;;;7.95;100.00;102370.94;5068415;28;20131;-30
2022/02/09 18:06:09;;;;;;;19.42;2.28;;;;;;;7.95;100.00;102368.16;5067955;28;20564;-31
2022/02/09 18:08:44;;;;;;;11.23;1.42;;;;;;;7.95;100.00;102370.94;5067196;28;20390;-32
2022/02/09 18:11:23;;;;;;;15.27;1.95;;;;;;;7.97;100.00;102365.13;5068388;28;20089;-32
2022/02/09 18:30:29;;;;;;;12.80;1.80;;;;;;;7.91;100.00;102358.59;5065574;28;20165;-30
2022/02/09 18:33:11;;;;;;;12.23;1.85;;;;;;;7.88;100.00;102364.66;5068918;28;20477;-30
2022/02/09 18:39:01;;;;;;;16.88;2.22;;;;;;;7.88;100.00;102366.59;5069205;28;20045;-30
2022/02/09 18:44:24;;;;;;;13.65;1.95;;;;;;;7.89;100.00;102362.72;5068947;28;20083;-32
2022/02/09 18:47:08;;;;;;;15.20;1.90;;;;;;;7.90;100.00;102356.91;5068558;28;20044;-32
2022/02/09 18:59:01;;;;;;;11.88;1.70;;;;;;;7.92;100.00;102343.63;5072372;28;20053;-32
2022/02/09 19:01:35;;;;;;;5.28;1.33;;;;;;;7.91;100.00;102352.19;5062867;28;20515;-31
2022/02/09 19:04:10;;;;;;;9.43;1.52;;;;;;;7.93;100.00;102353.66;5064590;28;20055;-30
2022/02/09 19:07:07;;;;;;;20.52;2.30;;;;;;;7.94;100.00;102354.50;5072442;28;20469;-32
2022/02/09 19:15:20;;;;;;;11.27;1.70;;;;;;;7.86;100.00;102354.88;5071792;28;20131;-30
2022/02/09 19:17:52;;;;;;;9.35;1.70;;;;;;;7.85;100.00;102351.25;5066532;28;20041;-31
2022/02/09 19:20:39;;;;;;;11.60;1.80;;;;;;;7.87;100.00;102346.28;5072466;28;20770;-30
2022/02/09 19:26:20;;;;;;;15.93;2.63;;;;;;;7.85;100.00;102342.91;5072265;28;20102;-30
2022/02/09 19:31:43;;;;;;;14.88;2.30;;;;;;;7.80;100.00;102342.78;5032687;28;20053;-31
2022/02/09 19:45:54;;;;;;;11.27;2.30;;;;;;;7.72;100.00;102329.28;5063411;28;20059;-31
2022/02/09 19:48:25;;;;;;;13.07;2.80;;;;;;;7.72;100.00;102325.66;5071671;28;20041;-29
2022/02/09 19:51:07;;;;;;;15.85;3.00;;;;;;;7.73;100.00;102324.56;5070396;28;20049;-30
2022/02/09 19:53:43;;;;;;;11.25;2.05;;;;;;;7.73;100.00;102328.19;5071902;28;20041;-30
2022/02/09 19:56:14;;;;;;;11.20;2.10;;;;;;;7.73;100.00;102321.78;5071128;28;20048;-33
2022/02/09 19:58:45;;;;;;;14.75;2.25;;;;;;;7.74;100.00;102320.72;5071793;28;20040;-29
2022/02/09 20:01:16;;;;;;;8.93;1.85;;;;;;;7.75;100.00;102323.25;5071207;28;20040;-31
2022/02/09 20:03:44;;;;;;;7.75;2.38;;;;;;;7.74;100.00;102321.56;5070944;28;20054;-30
2022/02/09 20:06:13;;;;;;;11.50;2.28;;;;;;;7.76;100.00;102324.09;5071762;28;20059;-29
2022/02/09 20:08:42;;;;;;;13.85;2.22;;;;;;;7.77;100.00;102329.41;5071274;28;20044;-30
2022/02/09 20:11:14;;;;;;;12.52;2.22;;;;;;;7.78;100.00;102328.31;5070608;28;20489;-31
2022/02/09 20:13:42;;;;;;;;;;;;;;;7.72;100.00;102317.31;5071611;28;20125;-30
2022/02/09 20:16:10;;;;;;;10.73;1.63;;;;;;;7.69;100.00;102328.94;5070634;28;20372;-32
2022/02/09 20:18:37;;;;;;;8.07;1.58;;;;;;;7.72;100.00;102326.50;5069997;28;20046;-30
2022/02/09 20:21:06;;;;;;;7.10;1.80;;;;;;;7.75;100.00;102314.06;5071175;28;20056;-29
2022/02/09 20:23:35;;;;;;;3.80;1.13;;;;;;;7.73;100.00;102311.53;5071248;28;20151;-30
2022/02/09 20:26:08;;;;;;;11.60;1.67;;;;;;;7.73;100.00;102305.13;5066900;28;20037;-30
2022/02/09 20:28:38;;;;;;;3.83;1.08;;;;;;;7.73;100.00;102307.91;5060417;28;20052;-30
2022/02/09 20:31:10;;;;;;;7.45;1.55;;;;;;;7.74;100.00;102302.09;5069919;28;20041;-31